createdAt,value
2022-12-31T00:00:08.197Z,8.05
2022-12-31T00:02:35.205Z,8.04
2022-12-31T00:05:02.172Z,8.02
2022-12-31T00:07:28.719Z,8.01
2022-12-31T00:09:55.220Z,8.01
2022-12-31T00:12:21.808Z,8.03
2022-12-31T00:14:48.356Z,8.03
2022-12-31T00:17:14.942Z,8.01
2022-12-31T00:19:41.481Z,8.01
2022-12-31T00:22:07.991Z,8.02
2022-12-31T00:24:35.932Z,8.01
2022-12-31T00:27:02.539Z,7.98
2022-12-31T00:29:29.091Z,7.99
2022-12-31T00:31:55.654Z,7.97
2022-12-31T00:34:22.325Z,7.96
2022-12-31T00:36:48.883Z,7.96
2022-12-31T00:39:15.461Z,7.95
2022-12-31T00:41:44.040Z,7.97
2022-12-31T00:44:14.440Z,7.97
2022-12-31T00:49:07.026Z,8.04
2022-12-31T00:51:33.739Z,8.07
2022-12-31T00:54:00.416Z,8.09
2022-12-31T00:56:29.652Z,8.12
2022-12-31T00:58:56.565Z,8.12
2022-12-31T01:01:29.342Z,8.12
2022-12-31T01:04:00.864Z,8.14
2022-12-31T01:06:27.599Z,8.15
2022-12-31T01:08:55.622Z,8.17
2022-12-31T01:11:23.543Z,8.17
2022-12-31T01:13:56.110Z,8.18
2022-12-31T01:16:28.564Z,8.18
2022-12-31T01:18:55.388Z,8.19
2022-12-31T01:21:22.513Z,8.21
2022-12-31T01:23:49.334Z,8.22
2022-12-31T01:26:16.881Z,8.24
2022-12-31T01:28:43.406Z,8.23
2022-12-31T01:31:13.681Z,8.25
2022-12-31T01:33:41.410Z,8.26
2022-12-31T01:36:11.931Z,8.29
2022-12-31T01:38:39.484Z,8.28
2022-12-31T01:41:06.644Z,8.28
2022-12-31T01:43:47.390Z,8.29
2022-12-31T01:46:27.170Z,8.31
2022-12-31T01:48:57.736Z,8.33
2022-12-31T01:51:28.260Z,8.30
2022-12-31T01:53:55.143Z,8.32
2022-12-31T01:56:23.131Z,8.33
2022-12-31T01:58:52.459Z,8.34
2022-12-31T02:01:27.139Z,8.34
2022-12-31T02:03:54.199Z,8.36
2022-12-31T02:06:29.067Z,8.34
2022-12-31T02:08:57.890Z,8.37
2022-12-31T02:11:35.328Z,8.38
2022-12-31T02:14:33.816Z,8.38
2022-12-31T02:17:09.456Z,8.38
2022-12-31T02:20:02.374Z,8.38
2022-12-31T02:22:47.844Z,8.39
2022-12-31T02:25:51.982Z,8.40
2022-12-31T02:28:18.507Z,8.40
2022-12-31T02:30:50.247Z,8.39
2022-12-31T02:33:41.078Z,8.41
2022-12-31T02:36:17.163Z,8.44
2022-12-31T02:38:47.565Z,8.42
2022-12-31T02:41:36.699Z,8.44
2022-12-31T02:44:24.299Z,8.45
2022-12-31T02:46:55.443Z,8.46
2022-12-31T02:49:55.475Z,8.47
2022-12-31T02:52:50.864Z,8.47
2022-12-31T02:55:45.182Z,8.50
2022-12-31T02:58:16.710Z,8.51
2022-12-31T03:01:13.039Z,8.52
2022-12-31T03:03:40.339Z,8.54
2022-12-31T03:06:08.997Z,8.54
2022-12-31T03:08:55.935Z,8.56
2022-12-31T03:11:41.166Z,8.58
2022-12-31T03:14:07.708Z,8.61
2022-12-31T03:16:35.055Z,8.60
2022-12-31T03:19:20.363Z,8.63
2022-12-31T03:22:05.320Z,8.64
2022-12-31T03:24:50.115Z,8.66
2022-12-31T03:27:16.581Z,8.67
2022-12-31T03:29:43.091Z,8.68
2022-12-31T03:32:09.650Z,8.68
2022-12-31T03:34:36.148Z,8.68
2022-12-31T03:37:02.653Z,8.69
2022-12-31T03:39:29.247Z,8.69
2022-12-31T03:41:55.732Z,8.71
2022-12-31T03:44:22.275Z,8.72
2022-12-31T03:46:48.831Z,8.72
2022-12-31T03:49:15.367Z,8.73
2022-12-31T03:51:41.880Z,8.73
2022-12-31T03:54:08.432Z,8.73
2022-12-31T03:56:34.933Z,8.74
2022-12-31T03:59:01.518Z,8.74
2022-12-31T04:01:28.084Z,8.74
2022-12-31T04:03:54.632Z,8.74
2022-12-31T04:06:21.178Z,8.74
2022-12-31T04:08:47.691Z,8.77
2022-12-31T04:11:20.511Z,8.76
2022-12-31T04:13:47.453Z,8.77
2022-12-31T04:16:13.959Z,8.77
2022-12-31T04:18:40.488Z,8.80
2022-12-31T04:21:07.247Z,8.79
2022-12-31T04:23:33.759Z,8.81
2022-12-31T04:26:00.323Z,8.81
2022-12-31T04:28:26.975Z,8.82
2022-12-31T04:30:53.499Z,8.82
2022-12-31T04:33:19.993Z,8.84
2022-12-31T04:35:46.512Z,8.85
2022-12-31T04:38:13.062Z,8.86
2022-12-31T04:41:15.227Z,8.86
2022-12-31T04:43:42.109Z,8.86
2022-12-31T04:46:08.666Z,8.89
2022-12-31T04:48:36.243Z,8.89
2022-12-31T04:51:03.724Z,8.88
2022-12-31T04:53:30.352Z,8.90
2022-12-31T04:55:56.871Z,8.90
2022-12-31T04:58:23.375Z,8.90
2022-12-31T05:00:52.690Z,8.89
2022-12-31T05:03:19.376Z,8.89
2022-12-31T05:05:45.889Z,8.91
2022-12-31T05:08:13.127Z,8.90
2022-12-31T05:10:48.549Z,8.89
2022-12-31T05:13:16.134Z,8.91
2022-12-31T05:15:42.979Z,8.91
2022-12-31T05:18:09.536Z,8.91
2022-12-31T05:20:36.113Z,8.92
2022-12-31T05:23:02.784Z,8.92
2022-12-31T05:25:29.412Z,8.92
2022-12-31T05:27:56.111Z,8.93
2022-12-31T05:30:23.421Z,8.92
2022-12-31T05:32:50.263Z,8.94
2022-12-31T05:35:17.421Z,8.94
2022-12-31T05:37:44.543Z,8.93
2022-12-31T05:40:12.628Z,8.94
2022-12-31T05:42:39.606Z,8.95
2022-12-31T05:45:06.823Z,8.96
2022-12-31T05:47:33.428Z,8.96
2022-12-31T05:49:59.982Z,8.98
2022-12-31T05:52:26.520Z,8.97
2022-12-31T05:54:53.384Z,8.98
2022-12-31T05:57:19.942Z,9.01
2022-12-31T05:59:46.454Z,8.99
2022-12-31T06:02:13.037Z,8.99
2022-12-31T06:04:39.636Z,9.00
2022-12-31T06:07:06.144Z,9.01
2022-12-31T06:09:32.716Z,9.01
2022-12-31T06:11:59.190Z,9.01
2022-12-31T06:14:25.788Z,9.04
2022-12-31T06:16:52.336Z,9.03
2022-12-31T06:19:18.824Z,9.06
2022-12-31T06:21:45.373Z,9.07
2022-12-31T06:24:12.378Z,9.06
2022-12-31T06:26:38.909Z,9.06
2022-12-31T06:29:05.469Z,9.06
2022-12-31T06:31:32.490Z,9.08
2022-12-31T06:33:59.134Z,9.08
2022-12-31T06:36:27.032Z,9.08
2022-12-31T06:38:53.738Z,9.10
2022-12-31T06:41:20.233Z,9.10
2022-12-31T06:43:46.783Z,9.11
2022-12-31T06:46:16.138Z,9.12
2022-12-31T06:48:44.795Z,9.13
2022-12-31T06:51:17.923Z,9.13
2022-12-31T06:53:46.170Z,9.13
2022-12-31T06:56:31.285Z,9.13
2022-12-31T06:59:00.315Z,9.15
2022-12-31T07:01:48.784Z,9.16
2022-12-31T07:04:57.888Z,9.17
2022-12-31T07:07:37.038Z,9.16
2022-12-31T07:10:31.511Z,9.17
2022-12-31T07:13:42.109Z,9.17
2022-12-31T07:16:30.480Z,9.17
2022-12-31T07:19:11.908Z,9.19
2022-12-31T07:21:41.285Z,9.19
2022-12-31T07:24:09.654Z,9.19
2022-12-31T07:26:57.037Z,9.21
2022-12-31T07:29:35.874Z,9.20
2022-12-31T07:32:18.201Z,9.22
2022-12-31T07:35:11.088Z,9.22
2022-12-31T07:37:59.434Z,9.23
2022-12-31T07:40:43.962Z,9.22
2022-12-31T07:43:33.224Z,9.24
2022-12-31T07:46:11.865Z,9.24
2022-12-31T07:48:38.737Z,9.26
2022-12-31T07:51:05.607Z,9.25
2022-12-31T07:53:32.356Z,9.26
2022-12-31T07:56:01.623Z,9.27
2022-12-31T07:58:39.972Z,9.27
2022-12-31T08:01:15.875Z,9.26
2022-12-31T08:03:54.304Z,9.27
2022-12-31T08:06:42.705Z,9.26
2022-12-31T08:09:09.188Z,9.27
2022-12-31T08:11:44.325Z,9.27
2022-12-31T08:14:13.225Z,9.27
2022-12-31T08:16:40.081Z,9.27
2022-12-31T08:19:06.888Z,9.27
2022-12-31T08:21:56.134Z,9.28
2022-12-31T08:24:36.082Z,9.27
2022-12-31T08:27:11.942Z,9.26
2022-12-31T08:29:53.618Z,9.24
2022-12-31T08:32:26.225Z,9.23
2022-12-31T08:35:03.464Z,9.22
2022-12-31T08:37:42.050Z,9.20
2022-12-31T08:40:39.255Z,9.21
2022-12-31T08:43:15.811Z,9.21
2022-12-31T08:45:49.934Z,9.19
2022-12-31T08:48:25.824Z,9.21
2022-12-31T08:50:53.608Z,9.22
2022-12-31T08:53:20.559Z,9.21
2022-12-31T08:55:49.484Z,9.22
2022-12-31T08:58:34.683Z,9.23
2022-12-31T09:01:02.294Z,9.21
2022-12-31T09:03:36.668Z,9.24
2022-12-31T09:06:13.721Z,9.25
2022-12-31T09:09:06.297Z,9.25
2022-12-31T09:11:58.292Z,9.25
2022-12-31T09:14:43.211Z,9.27
2022-12-31T09:17:24.808Z,9.27
2022-12-31T09:19:51.570Z,9.28
2022-12-31T09:22:18.353Z,9.28
2022-12-31T09:24:45.107Z,9.29
2022-12-31T09:27:27.593Z,9.30
2022-12-31T09:30:03.967Z,9.30
2022-12-31T09:32:42.784Z,9.31
2022-12-31T09:35:20.333Z,9.32
2022-12-31T09:37:50.462Z,9.32
2022-12-31T09:40:43.012Z,9.35
2022-12-31T09:43:09.492Z,9.36
2022-12-31T09:45:48.277Z,9.38
2022-12-31T09:48:36.007Z,9.40
2022-12-31T09:51:25.879Z,9.40
2022-12-31T09:53:55.374Z,9.42
2022-12-31T09:56:44.136Z,9.43
2022-12-31T09:59:11.049Z,9.45
2022-12-31T10:01:57.237Z,9.45
2022-12-31T10:04:40.118Z,9.47
2022-12-31T10:07:36.961Z,9.48
2022-12-31T10:10:09.374Z,9.50
2022-12-31T10:12:54.144Z,9.51
2022-12-31T10:15:35.999Z,9.54
2022-12-31T10:18:34.406Z,9.56
2022-12-31T10:21:44.255Z,9.57
2022-12-31T10:24:36.400Z,9.57
2022-12-31T10:27:06.703Z,9.58
2022-12-31T10:29:47.335Z,9.60
2022-12-31T10:32:31.150Z,9.62
2022-12-31T10:35:26.104Z,9.62
2022-12-31T10:38:16.118Z,9.64
2022-12-31T10:40:59.448Z,9.65
2022-12-31T10:43:50.540Z,9.68
2022-12-31T10:46:32.582Z,9.69
2022-12-31T10:49:23.412Z,9.71
2022-12-31T10:52:01.995Z,9.72
2022-12-31T10:54:47.141Z,9.74
2022-12-31T10:57:41.643Z,9.75
2022-12-31T11:00:15.432Z,9.74
2022-12-31T11:03:09.168Z,9.77
2022-12-31T11:06:00.171Z,9.79
2022-12-31T11:08:58.745Z,9.82
2022-12-31T11:11:43.100Z,9.82
2022-12-31T11:14:47.604Z,9.84
2022-12-31T11:17:23.360Z,9.86
2022-12-31T11:20:14.912Z,9.86
2022-12-31T11:22:47.532Z,9.90
2022-12-31T11:25:32.163Z,9.91
2022-12-31T11:28:32.490Z,9.91
2022-12-31T11:31:40.695Z,9.93
2022-12-31T11:34:37.960Z,9.96
2022-12-31T11:37:42.362Z,9.97
2022-12-31T11:40:36.835Z,10.00
2022-12-31T11:43:23.703Z,10.02
2022-12-31T11:45:59.473Z,10.04
2022-12-31T11:48:49.835Z,10.04
2022-12-31T11:51:19.320Z,10.07
2022-12-31T11:54:21.427Z,10.08
2022-12-31T11:56:59.350Z,10.09
2022-12-31T11:59:25.863Z,10.12
2022-12-31T12:01:57.770Z,10.14
2022-12-31T12:04:24.577Z,10.15
2022-12-31T12:06:52.329Z,10.16
2022-12-31T12:09:31.159Z,10.17
2022-12-31T12:12:00.832Z,10.17
2022-12-31T12:14:32.923Z,10.19
2022-12-31T12:17:04.878Z,10.20
2022-12-31T12:19:34.677Z,10.21
2022-12-31T12:22:19.121Z,10.22
2022-12-31T12:25:03.703Z,10.23
2022-12-31T12:27:33.649Z,10.23
2022-12-31T12:30:21.408Z,10.25
2022-12-31T12:33:15.837Z,10.26
2022-12-31T12:35:42.365Z,10.28
2022-12-31T12:38:21.434Z,10.27
2022-12-31T12:40:57.317Z,10.28
2022-12-31T12:43:30.300Z,10.28
2022-12-31T12:46:01.521Z,10.29
2022-12-31T12:48:37.128Z,10.32
2022-12-31T12:51:24.160Z,10.32
2022-12-31T12:54:04.674Z,10.31
2022-12-31T12:56:42.266Z,10.34
2022-12-31T12:59:47.634Z,10.35
2022-12-31T13:02:42.049Z,10.36
2022-12-31T13:05:29.337Z,10.38
2022-12-31T13:08:17.088Z,10.39
2022-12-31T13:11:26.404Z,10.40
2022-12-31T13:14:11.680Z,10.42
2022-12-31T13:16:54.002Z,10.42
2022-12-31T13:19:35.490Z,10.43
2022-12-31T13:22:05.143Z,10.43
2022-12-31T13:24:40.457Z,10.45
2022-12-31T13:27:27.183Z,10.45
2022-12-31T13:29:57.968Z,10.49
2022-12-31T13:32:42.355Z,10.46
2022-12-31T13:35:37.975Z,10.49
2022-12-31T13:38:09.956Z,10.49
2022-12-31T13:40:48.344Z,10.51
2022-12-31T13:43:56.877Z,10.51
2022-12-31T13:46:38.374Z,10.52
2022-12-31T13:49:32.219Z,10.53
2022-12-31T13:52:20.311Z,10.53
2022-12-31T13:55:05.298Z,10.53
2022-12-31T13:57:56.461Z,10.55
2022-12-31T14:00:24.384Z,10.54
2022-12-31T14:03:09.322Z,10.57
2022-12-31T14:05:48.968Z,10.57
2022-12-31T14:08:16.043Z,10.57
2022-12-31T14:10:48.465Z,10.57
2022-12-31T14:13:21.057Z,10.58
2022-12-31T14:16:26.098Z,10.61
2022-12-31T14:19:05.277Z,10.58
2022-12-31T14:21:44.422Z,10.59
2022-12-31T14:24:23.106Z,10.61
2022-12-31T14:26:56.330Z,10.62
2022-12-31T14:29:45.903Z,10.63
2022-12-31T14:32:35.938Z,10.64
2022-12-31T14:35:23.991Z,10.64
2022-12-31T14:37:50.984Z,10.64
2022-12-31T14:40:39.774Z,10.65
2022-12-31T14:43:47.558Z,10.66
2022-12-31T14:46:35.504Z,10.67
2022-12-31T14:49:33.543Z,10.67
2022-12-31T14:52:19.545Z,10.67
2022-12-31T14:54:46.102Z,10.69
2022-12-31T14:57:25.110Z,10.69
2022-12-31T14:59:57.906Z,10.67
2022-12-31T15:02:34.139Z,10.69
2022-12-31T15:05:13.013Z,10.71
2022-12-31T15:07:48.488Z,10.70
2022-12-31T15:10:36.034Z,10.71
2022-12-31T15:13:11.562Z,10.70
2022-12-31T15:15:41.107Z,10.71
2022-12-31T15:18:16.953Z,10.71
2022-12-31T15:21:20.681Z,10.71
2022-12-31T15:23:47.539Z,10.72
2022-12-31T15:26:26.086Z,10.72
2022-12-31T15:29:03.784Z,10.71
2022-12-31T15:31:33.270Z,10.72
2022-12-31T15:34:07.996Z,10.72
2022-12-31T15:36:53.136Z,10.73
2022-12-31T15:39:37.591Z,10.74
2022-12-31T15:42:37.157Z,10.74
2022-12-31T15:44:59.097Z,10.74
2022-12-31T15:47:34.549Z,10.75
2022-12-31T15:50:07.960Z,10.75
2022-12-31T15:52:39.554Z,10.75
2022-12-31T15:55:07.017Z,10.75
2022-12-31T15:57:38.941Z,10.75
2022-12-31T16:00:18.183Z,10.76
2022-12-31T16:02:45.646Z,10.76
2022-12-31T16:05:26.975Z,10.75
2022-12-31T16:07:58.704Z,10.76
2022-12-31T16:10:31.181Z,10.74
2022-12-31T16:12:59.572Z,10.77
2022-12-31T16:15:30.425Z,10.75
2022-12-31T16:18:09.150Z,10.76
2022-12-31T16:20:42.540Z,10.76
2022-12-31T16:23:21.864Z,10.77
2022-12-31T16:25:49.693Z,10.78
2022-12-31T16:28:19.362Z,10.76
2022-12-31T16:30:56.098Z,10.77
2022-12-31T16:33:22.829Z,10.78
2022-12-31T16:35:56.832Z,10.80
2022-12-31T16:38:30.790Z,10.77
2022-12-31T16:41:07.604Z,10.78
2022-12-31T16:43:43.246Z,10.76
2022-12-31T16:46:26.787Z,10.77
2022-12-31T16:48:55.306Z,10.76
2022-12-31T16:51:25.723Z,10.77
2022-12-31T16:53:52.540Z,10.77
2022-12-31T16:56:31.109Z,10.76
2022-12-31T16:59:04.748Z,10.76
2022-12-31T17:01:34.199Z,10.74
2022-12-31T17:04:04.906Z,10.75
2022-12-31T17:06:33.540Z,10.75
2022-12-31T17:09:20.712Z,10.75
2022-12-31T17:11:57.157Z,10.73
2022-12-31T17:14:26.404Z,10.73
2022-12-31T17:17:08.075Z,10.73
2022-12-31T17:19:42.684Z,10.72
2022-12-31T17:22:34.390Z,10.70
2022-12-31T17:25:07.440Z,10.70
2022-12-31T17:27:36.338Z,10.71
2022-12-31T17:30:39.872Z,10.70
2022-12-31T17:33:09.160Z,10.70
2022-12-31T17:35:41.980Z,10.67
2022-12-31T17:38:17.738Z,10.69
2022-12-31T17:40:51.303Z,10.70
2022-12-31T17:43:20.491Z,10.70
2022-12-31T17:45:50.133Z,10.70
2022-12-31T17:48:18.823Z,10.70
2022-12-31T17:50:50.929Z,10.70
2022-12-31T17:53:18.366Z,10.70
2022-12-31T17:55:47.152Z,10.70
2022-12-31T17:58:53.448Z,10.71
2022-12-31T18:01:23.839Z,10.70
2022-12-31T18:03:51.300Z,10.72
2022-12-31T18:06:19.616Z,10.73
2022-12-31T18:08:46.533Z,10.74
2022-12-31T18:11:19.805Z,10.72
2022-12-31T18:13:47.041Z,10.73
2022-12-31T18:16:14.410Z,10.76
2022-12-31T18:18:42.379Z,10.74
2022-12-31T18:21:25.306Z,10.75
2022-12-31T18:23:51.944Z,10.75
2022-12-31T18:26:21.112Z,10.76
2022-12-31T18:28:49.126Z,10.76
2022-12-31T18:31:28.405Z,10.75
2022-12-31T18:33:58.086Z,10.75
2022-12-31T18:36:29.081Z,10.75
2022-12-31T18:38:56.104Z,10.75
2022-12-31T18:41:26.952Z,10.75
2022-12-31T18:43:54.251Z,10.75
2022-12-31T18:46:23.444Z,10.75
2022-12-31T18:48:49.932Z,10.76
2022-12-31T18:51:26.472Z,10.75
2022-12-31T18:53:57.847Z,10.76
2022-12-31T18:56:25.239Z,10.78
2022-12-31T18:58:51.981Z,10.76
2022-12-31T19:01:26.083Z,10.77
2022-12-31T19:03:54.416Z,10.76
2022-12-31T19:06:21.084Z,10.76
2022-12-31T19:08:47.666Z,10.76
2022-12-31T19:11:14.974Z,10.76
2022-12-31T19:13:41.655Z,10.76
2022-12-31T19:16:09.755Z,10.77
2022-12-31T19:18:36.809Z,10.77
2022-12-31T19:21:04.653Z,10.75
2022-12-31T19:23:31.184Z,10.75
2022-12-31T19:25:57.711Z,10.75
2022-12-31T19:28:26.621Z,10.73
2022-12-31T19:30:53.692Z,10.74
2022-12-31T19:33:20.668Z,10.75
2022-12-31T19:35:47.547Z,10.73
2022-12-31T19:38:21.406Z,10.73
2022-12-31T19:40:48.905Z,10.72
2022-12-31T19:43:18.278Z,10.73
2022-12-31T19:45:45.703Z,10.72
2022-12-31T19:48:14.841Z,10.71
2022-12-31T19:50:44.921Z,10.70
2022-12-31T19:53:14.632Z,10.70
2022-12-31T19:55:41.896Z,10.72
2022-12-31T19:58:08.719Z,10.71
2022-12-31T20:00:35.424Z,10.72
2022-12-31T20:03:02.125Z,10.72
2022-12-31T20:05:28.816Z,10.71
2022-12-31T20:07:55.374Z,10.73
2022-12-31T20:10:21.898Z,10.72
2022-12-31T20:12:48.407Z,10.72
2022-12-31T20:15:14.972Z,10.72
2022-12-31T20:17:41.493Z,10.74
2022-12-31T20:20:08.559Z,10.73
2022-12-31T20:22:35.076Z,10.75
2022-12-31T20:25:01.738Z,10.76
2022-12-31T20:27:28.388Z,10.76
2022-12-31T20:29:54.967Z,10.76
2022-12-31T20:32:21.583Z,10.77
2022-12-31T20:34:48.128Z,10.77
2022-12-31T20:37:14.778Z,10.77
2022-12-31T20:39:42.669Z,10.77
2022-12-31T20:42:09.418Z,10.78
2022-12-31T20:44:35.938Z,10.77
2022-12-31T20:47:02.547Z,10.76
2022-12-31T20:50:00.691Z,10.76
2022-12-31T20:52:15.579Z,10.75
2022-12-31T20:54:42.170Z,10.73
2022-12-31T20:57:08.689Z,10.70
2022-12-31T20:59:35.351Z,10.70
2022-12-31T21:04:48.382Z,10.65
2022-12-31T21:07:15.069Z,10.63
2022-12-31T21:09:41.589Z,10.58
2022-12-31T21:12:29.476Z,10.53
2022-12-31T21:14:56.319Z,10.49
2022-12-31T21:17:22.837Z,10.46
2022-12-31T21:19:49.448Z,10.43
2022-12-31T21:22:15.969Z,10.40
2022-12-31T21:24:42.485Z,10.39
2022-12-31T21:27:09.011Z,10.38
2022-12-31T21:29:41.909Z,10.37
2022-12-31T21:32:17.514Z,10.37
2022-12-31T21:34:44.027Z,10.37
2022-12-31T21:37:10.541Z,10.36
2022-12-31T21:39:37.045Z,10.35
2022-12-31T21:42:04.045Z,10.32
2022-12-31T21:44:30.615Z,10.32
2022-12-31T21:47:39.809Z,10.28
2022-12-31T21:50:08.160Z,10.28
2022-12-31T21:52:35.216Z,10.28
2022-12-31T21:55:22.716Z,10.26
2022-12-31T22:00:56.085Z,10.23
2022-12-31T22:03:26.966Z,10.22
2022-12-31T22:05:58.571Z,10.18
2022-12-31T22:08:25.254Z,10.16
2022-12-31T22:10:53.118Z,10.16
2022-12-31T22:13:20.058Z,10.14
2022-12-31T22:15:48.467Z,10.10
2022-12-31T22:18:16.537Z,10.09
2022-12-31T22:20:43.376Z,10.05
2022-12-31T22:23:10.008Z,10.03
2022-12-31T22:25:38.435Z,10.03
2022-12-31T22:30:53.714Z,9.98
2022-12-31T22:33:20.371Z,9.94
2022-12-31T22:36:09.907Z,9.92
2022-12-31T22:38:36.485Z,9.92
2022-12-31T22:41:07.633Z,9.90
2022-12-31T22:43:36.507Z,9.89
2022-12-31T22:46:12.376Z,9.87
2022-12-31T22:48:39.735Z,9.84
2022-12-31T22:51:07.167Z,9.82
2022-12-31T22:53:33.776Z,9.80
2022-12-31T22:56:00.781Z,9.78
2022-12-31T22:58:27.614Z,9.79
2022-12-31T23:00:54.347Z,9.78
2022-12-31T23:03:21.003Z,9.79
2022-12-31T23:05:52.227Z,9.78
2022-12-31T23:08:23.229Z,9.80
2022-12-31T23:11:05.516Z,9.81
2022-12-31T23:13:57.149Z,9.78
2022-12-31T23:16:44.947Z,9.79
2022-12-31T23:19:30.802Z,9.78
2022-12-31T23:22:16.685Z,9.78
2022-12-31T23:24:43.537Z,9.78
2022-12-31T23:27:10.760Z,9.79
2022-12-31T23:29:46.128Z,9.78
2022-12-31T23:32:14.068Z,9.75
2022-12-31T23:34:40.577Z,9.75
2022-12-31T23:37:07.115Z,9.74
2022-12-31T23:39:33.691Z,9.74
2022-12-31T23:42:00.465Z,9.75
2022-12-31T23:44:28.291Z,9.74
2022-12-31T23:46:55.489Z,9.73
2022-12-31T23:49:22.087Z,9.72
2022-12-31T23:51:48.645Z,9.72
2022-12-31T23:54:15.895Z,9.73
2022-12-31T23:56:42.515Z,9.73
2022-12-31T23:59:10.962Z,9.72
